Time;durP1;ratioP1;P1;durP2;ratioP2;P2;SDS_P1;SDS_P2;PMS_P1;PMS_P2;Temp;Humidity;BMP_temperature;BMP_pressure;BME280_temperature;BME280_humidity;BME280_pressure;Samples;Min_cycle;Max_cycle;Signal;HPM_P1;HPM_P2
2022/08/05 00:00:17;;;;;;;0.00;0.00;;;19.60;99.90;;;;;;5018286;28;20480;-67
2022/08/05 00:02:45;;;;;;;0.00;0.00;;;19.60;99.90;;;;;;5019306;28;20707;-66
2022/08/05 00:05:19;;;;;;;0.00;0.00;;;19.50;99.90;;;;;;5018721;28;20437;-67
2022/08/05 00:08:08;;;;;;;0.00;0.00;;;19.50;99.90;;;;;;5017416;28;20489;-67
2022/08/05 00:10:55;;;;;;;0.00;0.00;;;19.50;99.90;;;;;;5018467;28;20730;-67
2022/08/05 00:13:30;;;;;;;0.00;0.00;;;19.50;99.90;;;;;;5018296;28;20437;-67
2022/08/05 00:16:08;;;;;;;0.00;0.00;;;19.50;99.90;;;;;;5018227;28;20451;-67
2022/08/05 00:18:43;;;;;;;0.00;0.00;;;19.40;99.90;;;;;;5018319;28;20506;-67
2022/08/05 00:21:11;;;;;;;0.00;0.00;;;19.40;99.90;;;;;;5018105;28;20484;-67
2022/08/05 00:23:43;;;;;;;0.00;0.00;;;19.30;99.90;;;;;;5017977;28;20448;-67
2022/08/05 00:26:21;;;;;;;0.00;0.00;;;19.40;99.90;;;;;;5017970;28;20840;-67
2022/08/05 00:28:51;;;;;;;0.00;0.00;;;19.40;99.90;;;;;;5018058;28;20472;-67
2022/08/05 00:31:19;;;;;;;0.00;0.00;;;19.30;99.90;;;;;;5017775;28;20475;-67
2022/08/05 00:34:07;;;;;;;0.00;0.00;;;19.30;99.90;;;;;;5018266;28;20437;-66
2022/08/05 00:36:55;;;;;;;0.00;0.00;;;19.20;99.90;;;;;;5017825;28;20951;-66
2022/08/05 00:39:42;;;;;;;0.00;0.00;;;19.20;99.90;;;;;;5017932;28;20437;-66
2022/08/05 00:42:31;;;;;;;0.00;0.00;;;19.20;99.90;;;;;;5018109;28;20452;-66
2022/08/05 00:45:01;;;;;;;0.00;0.00;;;18.90;99.90;;;;;;5018172;28;20993;-66
2022/08/05 00:47:29;;;;;;;0.00;0.00;;;18.90;99.90;;;;;;5017886;28;20466;-67
2022/08/05 00:50:17;;;;;;;0.00;0.00;;;18.90;99.90;;;;;;5017657;28;20457;-66
2022/08/05 00:52:47;;;;;;;0.00;0.00;;;18.90;99.90;;;;;;5017636;28;20769;-66
2022/08/05 00:55:15;;;;;;;0.00;0.00;;;18.90;99.90;;;;;;5017659;28;20519;-66
2022/08/05 00:57:45;;;;;;;0.00;0.00;;;18.90;99.90;;;;;;5017866;28;20998;-67
2022/08/05 01:00:28;;;;;;;0.00;0.00;;;18.90;99.90;;;;;;5017037;28;20849;-66
2022/08/05 01:02:56;;;;;;;0.00;0.00;;;18.90;99.90;;;;;;5018016;28;20525;-66
2022/08/05 01:05:26;;;;;;;0.00;0.00;;;19.00;99.90;;;;;;5018583;28;20424;-67
2022/08/05 01:07:55;;;;;;;0.00;0.00;;;19.00;99.90;;;;;;5018079;28;20474;-66
2022/08/05 01:10:48;;;;;;;0.00;0.00;;;19.00;99.90;;;;;;5019443;28;20982;-66
2022/08/05 01:13:24;;;;;;;0.00;0.00;;;19.00;99.90;;;;;;5018252;28;20606;-66
2022/08/05 01:16:21;;;;;;;0.00;0.00;;;19.00;99.90;;;;;;5017989;28;20441;-66
2022/08/05 01:18:58;;;;;;;0.00;0.00;;;19.00;99.90;;;;;;5018166;28;20881;-66
2022/08/05 01:21:49;;;;;;;0.00;0.00;;;19.00;99.90;;;;;;5021045;28;20541;-66
2022/08/05 01:24:34;;;;;;;0.00;0.00;;;19.00;99.90;;;;;;5021355;28;20483;-67
2022/08/05 01:27:11;;;;;;;0.00;0.00;;;19.00;99.90;;;;;;5021281;28;20500;-67
2022/08/05 01:29:51;;;;;;;0.00;0.00;;;19.00;99.90;;;;;;5021168;28;20436;-66
2022/08/05 01:32:25;;;;;;;0.00;0.00;;;19.00;99.90;;;;;;5021517;28;20930;-66
2022/08/05 01:34:59;;;;;;;0.00;0.00;;;19.00;99.90;;;;;;5021378;28;20698;-66
2022/08/05 01:37:34;;;;;;;0.00;0.00;;;19.00;99.90;;;;;;5021308;28;20765;-66
2022/08/05 01:40:06;;;;;;;0.00;0.00;;;19.00;99.90;;;;;;5021098;28;20860;-67
2022/08/05 01:42:37;;;;;;;0.00;0.00;;;19.00;99.90;;;;;;5021477;28;20439;-66
2022/08/05 01:45:09;;;;;;;0.00;0.00;;;19.00;99.90;;;;;;5021220;28;20455;-66
2022/08/05 01:47:39;;;;;;;0.00;0.00;;;19.00;99.90;;;;;;5020812;28;20491;-66
2022/08/05 01:50:14;;;;;;;0.00;0.00;;;18.90;99.90;;;;;;5020955;28;20512;-66
2022/08/05 01:52:46;;;;;;;0.00;0.00;;;18.90;99.90;;;;;;5020874;28;20526;-67
2022/08/05 01:55:20;;;;;;;0.00;0.00;;;19.00;99.90;;;;;;5020855;28;20766;-67
2022/08/05 01:57:49;;;;;;;0.00;0.00;;;19.10;99.90;;;;;;5020712;28;20470;-67
2022/08/05 02:00:44;;;;;;;0.00;0.00;;;19.10;99.90;;;;;;5020046;28;20479;-66
2022/08/05 02:03:17;;;;;;;0.00;0.00;;;19.10;99.90;;;;;;5021322;28;20811;-66
2022/08/05 02:06:01;;;;;;;0.00;0.00;;;19.10;99.90;;;;;;5020812;28;20927;-66
2022/08/05 02:08:49;;;;;;;0.00;0.00;;;19.10;99.90;;;;;;5021572;28;20475;-66
2022/08/05 02:11:31;;;;;;;0.00;0.00;;;19.10;99.90;;;;;;5020345;28;20994;-66
2022/08/05 02:14:05;;;;;;;0.00;0.00;;;19.10;99.90;;;;;;5020876;28;20447;-67
2022/08/05 02:23:17;;;;;;;0.00;0.00;;;19.10;99.90;;;;;;4905216;29;20797;-66
2022/08/05 02:25:46;;;;;;;0.00;0.00;;;19.00;99.90;;;;;;4904442;29;20451;-66
2022/08/05 02:28:24;;;;;;;0.00;0.00;;;19.00;99.90;;;;;;4904765;29;20624;-66
2022/08/05 02:31:02;;;;;;;0.00;0.00;;;19.00;99.90;;;;;;4903725;29;20521;-66
2022/08/05 02:33:36;;;;;;;0.00;0.00;;;19.00;99.90;;;;;;4904057;29;20476;-66
2022/08/05 02:36:09;;;;;;;0.00;0.00;;;19.10;99.90;;;;;;4904563;29;20456;-66
2022/08/05 02:38:43;;;;;;;0.00;0.00;;;19.10;99.90;;;;;;4903811;29;21161;-66
2022/08/05 02:41:22;;;;;;;0.00;0.00;;;19.10;99.90;;;;;;4903803;29;20480;-66
2022/08/05 02:43:56;;;;;;;0.00;0.00;;;19.00;99.90;;;;;;4904015;29;20474;-66
2022/08/05 02:46:34;;;;;;;0.00;0.00;;;19.10;99.90;;;;;;4903961;29;20815;-66
2022/08/05 02:49:02;;;;;;;0.00;0.00;;;19.10;99.90;;;;;;4904072;29;20480;-66
2022/08/05 02:51:31;;;;;;;0.00;0.00;;;19.10;99.90;;;;;;4903840;29;20442;-66
2022/08/05 02:54:21;;;;;;;0.00;0.00;;;19.00;99.90;;;;;;4903974;29;20453;-66
2022/08/05 02:57:05;;;;;;;0.00;0.00;;;18.90;99.90;;;;;;4903893;29;20496;-66
2022/08/05 02:59:53;;;;;;;0.00;0.00;;;18.80;99.90;;;;;;4904224;29;20452;-66
2022/08/05 03:02:28;;;;;;;0.00;0.00;;;18.70;99.90;;;;;;4904278;29;20516;-67
2022/08/05 03:04:57;;;;;;;0.00;0.00;;;18.60;99.90;;;;;;4903571;29;20442;-66
2022/08/05 03:07:26;;;;;;;0.00;0.00;;;18.60;99.90;;;;;;4903682;29;20555;-67
2022/08/05 03:10:16;;;;;;;0.00;0.00;;;18.60;99.90;;;;;;4903848;29;20448;-66
2022/08/05 03:12:52;;;;;;;0.00;0.00;;;18.60;99.90;;;;;;4904292;29;20467;-66
2022/08/05 03:15:20;;;;;;;0.00;0.00;;;18.40;99.90;;;;;;4903731;29;20456;-69
2022/08/05 03:17:51;;;;;;;0.00;0.00;;;18.40;99.90;;;;;;4904488;29;20459;-68
2022/08/05 03:20:22;;;;;;;0.00;0.00;;;18.20;99.90;;;;;;4904205;29;20444;-67
2022/08/05 03:22:52;;;;;;;0.00;0.00;;;18.10;99.90;;;;;;4903348;29;20816;-67
2022/08/05 03:25:26;;;;;;;0.00;0.00;;;18.10;99.90;;;;;;4904208;29;20451;-67
2022/08/05 03:28:01;;;;;;;0.00;0.00;;;18.00;99.90;;;;;;4903549;29;20472;-67
2022/08/05 03:30:31;;;;;;;0.00;0.00;;;17.90;99.90;;;;;;4912855;29;20456;-67
2022/08/05 03:33:01;;;;;;;0.00;0.00;;;17.90;99.90;;;;;;4903761;29;21157;-67
2022/08/05 03:35:31;;;;;;;0.00;0.00;;;17.90;99.90;;;;;;4903964;29;20452;-66
2022/08/05 03:38:07;;;;;;;0.00;0.00;;;17.80;99.90;;;;;;4903261;29;20490;-67
2022/08/05 03:40:40;;;;;;;0.00;0.00;;;17.80;99.90;;;;;;4903249;29;20726;-67
2022/08/05 03:43:12;;;;;;;0.00;0.00;;;17.70;99.90;;;;;;4903329;29;20497;-67
2022/08/05 03:46:00;;;;;;;0.00;0.00;;;17.60;99.90;;;;;;4903152;29;20661;-67
2022/08/05 03:48:28;;;;;;;0.00;0.00;;;17.50;99.90;;;;;;4903301;29;20480;-67
2022/08/05 03:51:03;;;;;;;0.00;0.00;;;17.50;99.90;;;;;;4902654;29;20470;-67
2022/08/05 03:54:00;;;;;;;0.00;0.00;;;17.50;99.90;;;;;;4902784;29;20610;-66
2022/08/05 03:56:50;;;;;;;0.00;0.00;;;17.40;99.90;;;;;;4902890;29;20471;-67
2022/08/05 03:59:24;;;;;;;0.00;0.00;;;17.30;99.90;;;;;;4902915;29;20529;-67
2022/08/05 04:01:57;;;;;;;0.00;0.00;;;17.40;99.90;;;;;;4902786;29;20830;-66
2022/08/05 04:04:26;;;;;;;0.00;0.00;;;17.40;99.90;;;;;;4904506;29;20537;-69
2022/08/05 04:06:55;;;;;;;0.00;0.00;;;17.40;99.90;;;;;;4910571;29;21091;-68
2022/08/05 04:09:23;;;;;;;0.00;0.00;;;17.40;99.90;;;;;;4911749;29;20702;-68
2022/08/05 04:11:55;;;;;;;0.00;0.00;;;17.40;99.90;;;;;;4904420;29;20931;-69
2022/08/05 04:14:25;;;;;;;0.00;0.00;;;17.40;99.90;;;;;;4902618;29;20510;-68
2022/08/05 04:16:59;;;;;;;0.00;0.00;;;17.40;99.90;;;;;;4902758;29;20459;-66
2022/08/05 04:19:28;;;;;;;0.00;0.00;;;17.40;99.90;;;;;;4902929;29;20499;-68
2022/08/05 04:21:56;;;;;;;0.00;0.00;;;17.40;99.90;;;;;;4902479;29;20808;-69
2022/08/05 04:24:39;;;;;;;0.00;0.00;;;17.40;99.90;;;;;;4902556;29;20864;-68
2022/08/05 04:27:13;;;;;;;0.00;0.00;;;17.40;99.90;;;;;;4902644;29;20478;-67
2022/08/05 04:30:00;;;;;;;0.00;0.00;;;17.40;99.90;;;;;;4902704;29;20451;-66
2022/08/05 04:32:30;;;;;;;0.00;0.00;;;17.40;99.90;;;;;;4902809;29;20442;-68
2022/08/05 04:35:00;;;;;;;0.00;0.00;;;17.50;99.90;;;;;;4902402;29;20511;-66
2022/08/05 04:37:28;;;;;;;0.00;0.00;;;17.50;99.90;;;;;;4902442;29;20472;-69
2022/08/05 04:40:16;;;;;;;0.00;0.00;;;17.60;99.90;;;;;;4905946;29;20448;-68
2022/08/05 04:42:47;;;;;;;0.00;0.00;;;17.60;99.90;;;;;;4912083;29;20861;-68
2022/08/05 04:45:15;;;;;;;0.00;0.00;;;17.60;99.90;;;;;;4904038;29;20460;-68
2022/08/05 04:48:04;;;;;;;0.00;0.00;;;17.70;99.90;;;;;;4902610;29;21017;-68
2022/08/05 04:50:41;;;;;;;0.00;0.00;;;17.70;99.90;;;;;;4902439;29;20644;-68
2022/08/05 04:53:28;;;;;;;0.00;0.00;;;17.60;99.90;;;;;;4902140;29;20450;-68
2022/08/05 04:56:02;;;;;;;0.00;0.00;;;17.70;99.90;;;;;;4902756;29;20443;-68
2022/08/05 04:58:51;;;;;;;0.00;0.00;;;17.70;99.90;;;;;;4903269;29;20488;-68
2022/08/05 05:01:19;;;;;;;0.00;0.00;;;17.60;99.90;;;;;;4902172;29;20443;-67
2022/08/05 05:04:07;;;;;;;0.00;0.00;;;17.60;99.90;;;;;;4902154;29;20838;-68
2022/08/05 05:06:36;;;;;;;0.00;0.00;;;17.60;99.90;;;;;;4902592;29;20827;-68
2022/08/05 05:09:12;;;;;;;0.00;0.00;;;17.60;99.90;;;;;;4902280;29;21074;-67
2022/08/05 05:11:45;;;;;;;0.00;0.00;;;17.60;99.90;;;;;;4902018;29;20832;-68
2022/08/05 05:14:24;;;;;;;0.00;0.00;;;17.60;99.90;;;;;;4902088;29;20951;-68
2022/08/05 05:16:58;;;;;;;0.00;0.00;;;17.60;99.90;;;;;;4901864;29;20843;-67
2022/08/05 05:19:26;;;;;;;0.00;0.00;;;17.70;99.90;;;;;;4902190;29;21006;-68
2022/08/05 05:22:04;;;;;;;0.00;0.00;;;17.70;99.90;;;;;;4901692;29;20513;-67
2022/08/05 05:24:51;;;;;;;0.00;0.00;;;17.70;99.90;;;;;;4902537;29;20931;-68
2022/08/05 05:27:26;;;;;;;0.00;0.00;;;17.80;99.90;;;;;;4902313;29;20503;-68
2022/08/05 05:30:11;;;;;;;0.00;0.00;;;17.80;99.90;;;;;;4901784;29;20455;-67
2022/08/05 05:32:56;;;;;;;0.00;0.00;;;17.90;99.90;;;;;;4901722;29;20442;-68
2022/08/05 05:35:31;;;;;;;0.00;0.00;;;18.00;99.90;;;;;;4901967;29;20862;-68
2022/08/05 05:38:07;;;;;;;0.00;0.00;;;17.90;99.90;;;;;;4902228;29;20549;-69
2022/08/05 05:40:39;;;;;;;0.00;0.00;;;18.00;99.90;;;;;;4901337;29;20498;-68
2022/08/05 05:43:18;;;;;;;0.00;0.00;;;18.10;99.90;;;;;;4901586;29;20474;-68
2022/08/05 05:46:07;;;;;;;0.00;0.00;;;18.10;99.90;;;;;;4902078;29;20448;-68
2022/08/05 05:48:44;;;;;;;0.00;0.00;;;18.10;99.90;;;;;;4901753;29;21008;-68
2022/08/05 05:51:22;;;;;;;0.00;0.00;;;18.10;99.90;;;;;;4901612;29;20463;-68
2022/08/05 05:53:52;;;;;;;0.00;0.00;;;18.10;99.90;;;;;;4901788;29;20444;-68
2022/08/05 05:56:26;;;;;;;0.00;0.00;;;18.10;99.90;;;;;;4901856;29;21012;-67
2022/08/05 05:58:58;;;;;;;0.00;0.00;;;18.20;99.90;;;;;;4901666;29;20551;-67
2022/08/05 06:01:32;;;;;;;0.00;0.00;;;18.20;99.90;;;;;;4901962;29;20454;-67
2022/08/05 06:04:06;;;;;;;0.00;0.00;;;18.20;99.90;;;;;;4901650;29;20487;-68
2022/08/05 06:06:34;;;;;;;0.00;0.00;;;18.20;99.90;;;;;;4902806;29;20668;-68
2022/08/05 06:09:02;;;;;;;0.00;0.00;;;18.20;99.90;;;;;;4905265;29;20492;-68
2022/08/05 06:11:31;;;;;;;0.00;0.00;;;18.20;99.90;;;;;;4904913;29;20468;-68
2022/08/05 06:13:59;;;;;;;0.00;0.00;;;18.20;99.90;;;;;;4904906;29;20444;-68
2022/08/05 06:16:27;;;;;;;0.00;0.00;;;18.30;99.90;;;;;;4904980;29;20447;-67
2022/08/05 06:19:01;;;;;;;0.00;0.00;;;18.30;99.90;;;;;;4904724;29;20477;-67
2022/08/05 06:21:32;;;;;;;0.00;0.00;;;18.30;99.90;;;;;;4904843;29;20456;-67
2022/08/05 06:24:06;;;;;;;0.00;0.00;;;18.40;99.90;;;;;;4904654;29;20504;-67
2022/08/05 06:26:38;;;;;;;0.00;0.00;;;18.50;99.90;;;;;;4904985;29;20458;-66
2022/08/05 06:29:12;;;;;;;0.00;0.00;;;18.70;99.90;;;;;;4904762;29;21008;-66
2022/08/05 06:32:00;;;;;;;0.00;0.00;;;18.70;99.90;;;;;;4904704;29;20448;-66
2022/08/05 06:34:30;;;;;;;0.00;0.00;;;18.80;99.90;;;;;;4904430;29;20552;-67
2022/08/05 06:36:58;;;;;;;0.00;0.00;;;18.90;99.90;;;;;;4904341;29;20456;-67
2022/08/05 06:39:26;;;;;;;0.00;0.00;;;18.90;99.90;;;;;;4904512;29;20512;-67
2022/08/05 06:41:56;;;;;;;0.00;0.00;;;19.00;99.90;;;;;;4904132;29;20453;-67
2022/08/05 06:44:25;;;;;;;0.00;0.00;;;19.00;99.90;;;;;;4904368;29;20553;-66
2022/08/05 06:46:53;;;;;;;0.00;0.00;;;19.10;99.90;;;;;;4904502;29;20565;-67
2022/08/05 06:49:21;;;;;;;0.00;0.00;;;19.30;99.90;;;;;;4904426;29;20467;-67
2022/08/05 06:52:10;;;;;;;0.00;0.00;;;19.30;99.90;;;;;;4904549;29;20450;-66
2022/08/05 06:54:58;;;;;;;0.00;0.00;;;19.60;99.90;;;;;;4904675;29;20446;-67
2022/08/05 06:57:26;;;;;;;0.00;0.00;;;19.70;99.90;;;;;;4904569;29;20561;-66
2022/08/05 07:00:17;;;;;;;0.00;0.00;;;19.70;99.90;;;;;;4903788;29;20451;-66
2022/08/05 07:02:51;;;;;;;0.00;0.00;;;19.60;99.90;;;;;;4904334;29;20664;-66
2022/08/05 07:05:21;;;;;;;0.00;0.00;;;19.60;99.90;;;;;;4904152;29;20944;-66
2022/08/05 07:08:06;;;;;;;0.00;0.00;;;19.60;99.90;;;;;;4904287;29;20462;-67
2022/08/05 07:10:38;;;;;;;0.00;0.00;;;19.70;99.90;;;;;;4903622;29;20546;-66
2022/08/05 07:19:31;;;;;;;0.00;0.00;;;20.10;99.90;;;;;;4903823;29;20461;-66
2022/08/05 07:22:21;;;;;;;0.00;0.00;;;20.20;99.90;;;;;;4906821;29;20996;-66
2022/08/05 07:24:58;;;;;;;0.00;0.00;;;20.10;99.90;;;;;;4903628;29;20541;-66
2022/08/05 07:27:25;;;;;;;0.00;0.00;;;20.00;99.90;;;;;;4903467;29;20467;-66
2022/08/05 07:30:13;;;;;;;0.00;0.00;;;20.00;99.90;;;;;;4903701;29;20446;-66
2022/08/05 07:32:52;;;;;;;0.00;0.00;;;19.90;99.90;;;;;;4904481;29;20873;-66
2022/08/05 07:35:20;;;;;;;0.00;0.00;;;19.80;99.90;;;;;;4904983;29;20454;-66
2022/08/05 07:38:08;;;;;;;0.00;0.00;;;19.80;99.90;;;;;;4904239;29;20581;-66
2022/08/05 07:40:57;;;;;;;0.00;0.00;;;19.70;99.90;;;;;;4904361;29;20447;-66
2022/08/05 07:43:31;;;;;;;0.00;0.00;;;19.60;99.90;;;;;;4904081;29;20492;-66
2022/08/05 07:46:01;;;;;;;0.00;0.00;;;19.60;99.90;;;;;;4904120;29;21329;-66
2022/08/05 07:48:29;;;;;;;0.00;0.00;;;19.60;99.90;;;;;;4902925;29;21081;-66
2022/08/05 07:51:17;;;;;;;0.00;0.00;;;19.60;99.90;;;;;;4903371;29;20558;-66
2022/08/05 07:54:05;;;;;;;0.00;0.00;;;19.50;99.90;;;;;;4903707;29;20839;-66
2022/08/05 07:56:36;;;;;;;0.00;0.00;;;19.60;99.90;;;;;;4902372;29;20969;-67
2022/08/05 07:59:24;;;;;;;0.00;0.00;;;19.60;99.90;;;;;;4902415;29;20466;-66
2022/08/05 08:02:08;;;;;;;0.00;0.00;;;19.60;99.90;;;;;;4902818;29;20481;-66
2022/08/05 08:04:44;;;;;;;0.00;0.00;;;19.60;99.90;;;;;;4903068;29;20586;-67
2022/08/05 08:07:13;;;;;;;0.00;0.00;;;19.60;99.90;;;;;;4902391;29;21041;-67
2022/08/05 08:09:42;;;;;;;0.00;0.00;;;19.60;99.90;;;;;;4902629;29;20744;-66
2022/08/05 08:12:12;;;;;;;0.00;0.00;;;19.60;99.90;;;;;;4902924;29;20751;-66
2022/08/05 08:15:00;;;;;;;0.00;0.00;;;19.60;99.90;;;;;;4903057;29;20453;-66
2022/08/05 08:17:30;;;;;;;0.00;0.00;;;19.60;99.90;;;;;;4902848;29;20686;-67
2022/08/05 08:19:57;;;;;;;0.00;0.00;;;19.60;99.90;;;;;;4902635;29;20451;-66
2022/08/05 08:22:51;;;;;;;0.00;0.00;;;19.60;99.90;;;;;;4902608;29;20473;-66
2022/08/05 08:25:19;;;;;;;0.00;0.00;;;19.50;99.90;;;;;;4902895;29;20581;-67
2022/08/05 08:28:08;;;;;;;0.00;0.00;;;19.50;99.90;;;;;;4902523;29;20797;-66
2022/08/05 08:30:45;;;;;;;0.00;0.00;;;19.50;99.90;;;;;;4902804;29;20457;-66
2022/08/05 08:33:16;;;;;;;0.00;0.00;;;19.40;99.90;;;;;;4903139;29;20465;-67
2022/08/05 08:35:46;;;;;;;0.00;0.00;;;19.50;99.90;;;;;;4902690;29;20450;-67
2022/08/05 08:38:34;;;;;;;0.00;0.00;;;19.50;99.90;;;;;;4902716;29;20800;-66
2022/08/05 08:41:07;;;;;;;0.00;0.00;;;19.50;99.90;;;;;;4902686;29;20869;-66
2022/08/05 08:43:37;;;;;;;0.00;0.00;;;19.60;99.90;;;;;;4902810;29;21031;-66
2022/08/05 08:46:27;;;;;;;0.00;0.00;;;19.60;99.90;;;;;;4902564;29;20457;-66
2022/08/05 08:48:56;;;;;;;0.00;0.00;;;19.60;99.90;;;;;;4902606;29;20637;-67
2022/08/05 08:51:48;;;;;;;0.00;0.00;;;19.50;99.90;;;;;;4902499;29;20465;-67
2022/08/05 08:54:36;;;;;;;0.00;0.00;;;19.50;99.90;;;;;;4902661;29;20450;-67
2022/08/05 08:57:06;;;;;;;0.00;0.00;;;19.50;99.90;;;;;;4902381;29;20449;-68
2022/08/05 08:59:41;;;;;;;0.00;0.00;;;19.50;99.90;;;;;;4902364;29;20545;-66
2022/08/05 09:02:16;;;;;;;0.00;0.00;;;19.40;99.90;;;;;;4903442;29;20549;-67
2022/08/05 09:04:45;;;;;;;0.00;0.00;;;19.40;99.90;;;;;;4903107;29;20509;-66
2022/08/05 09:07:33;;;;;;;0.00;0.00;;;19.40;99.90;;;;;;4912559;29;20466;-66
2022/08/05 09:10:21;;;;;;;0.00;0.00;;;19.40;99.90;;;;;;4901831;29;20480;-66
2022/08/05 09:12:56;;;;;;;0.00;0.00;;;19.30;99.90;;;;;;4902059;29;20610;-66
2022/08/05 09:15:33;;;;;;;0.00;0.00;;;19.30;99.90;;;;;;4902840;29;20695;-66
2022/08/05 09:18:07;;;;;;;0.00;0.00;;;19.30;99.90;;;;;;4901869;29;20622;-67
2022/08/05 09:20:36;;;;;;;0.00;0.00;;;19.40;99.90;;;;;;4901755;29;20446;-67
2022/08/05 09:23:11;;;;;;;0.00;0.00;;;19.50;99.90;;;;;;4901580;29;20553;-67
2022/08/05 09:25:50;;;;;;;0.00;0.00;;;19.50;99.90;;;;;;4901697;29;20616;-67
2022/08/05 09:28:31;;;;;;;0.00;0.00;;;19.60;99.90;;;;;;4901553;29;21034;-66
2022/08/05 09:31:04;;;;;;;0.00;0.00;;;19.70;99.90;;;;;;4901513;29;21072;-67
2022/08/05 09:33:54;;;;;;;0.00;0.00;;;19.80;99.90;;;;;;4901726;29;20446;-67
2022/08/05 09:36:23;;;;;;;0.00;0.00;;;19.80;99.90;;;;;;4901680;29;20462;-67
2022/08/05 09:39:01;;;;;;;0.00;0.00;;;19.80;99.90;;;;;;4901625;29;20474;-67
2022/08/05 09:41:29;;;;;;;0.00;0.00;;;19.80;99.90;;;;;;4909539;29;20446;-68
2022/08/05 09:44:05;;;;;;;0.00;0.00;;;19.90;99.90;;;;;;4911038;29;20450;-67
2022/08/05 09:46:34;;;;;;;0.00;0.00;;;19.80;99.90;;;;;;4909919;29;20557;-67
2022/08/05 09:49:06;;;;;;;0.00;0.00;;;19.80;99.90;;;;;;4905575;29;20488;-67
2022/08/05 09:51:47;;;;;;;0.00;0.00;;;19.80;99.90;;;;;;4905161;29;20518;-68
2022/08/05 09:54:29;;;;;;;0.00;0.00;;;19.80;99.90;;;;;;4905292;29;20694;-68
2022/08/05 09:56:57;;;;;;;0.00;0.00;;;19.80;99.90;;;;;;4905201;29;20446;-67
2022/08/05 09:59:29;;;;;;;0.00;0.00;;;19.90;99.90;;;;;;4904833;29;20423;-67
2022/08/05 10:02:05;;;;;;;0.00;0.00;;;19.90;99.90;;;;;;4905211;29;20453;-68
2022/08/05 10:04:36;;;;;;;0.00;0.00;;;19.90;99.90;;;;;;4904959;29;20976;-67
2022/08/05 10:07:07;;;;;;;0.00;0.00;;;19.90;99.90;;;;;;4905271;29;20434;-68
2022/08/05 10:09:55;;;;;;;0.00;0.00;;;19.90;99.90;;;;;;4904692;29;20720;-67
2022/08/05 10:12:44;;;;;;;0.00;0.00;;;19.90;99.90;;;;;;4904648;29;20541;-67
2022/08/05 10:15:19;;;;;;;0.00;0.00;;;20.00;99.90;;;;;;4905066;29;20452;-67
2022/08/05 10:18:05;;;;;;;0.00;0.00;;;19.90;99.90;;;;;;4904650;29;20482;-67
2022/08/05 10:20:35;;;;;;;0.00;0.00;;;19.80;99.90;;;;;;4904700;29;20541;-67
2022/08/05 10:23:04;;;;;;;0.00;0.00;;;19.80;99.90;;;;;;4904314;29;20537;-67
2022/08/05 10:25:49;;;;;;;0.00;0.00;;;19.80;99.90;;;;;;4904421;29;20487;-67
2022/08/05 10:28:19;;;;;;;0.00;0.00;;;19.70;99.90;;;;;;4904421;29;20799;-67
2022/08/05 10:30:57;;;;;;;0.00;0.00;;;19.60;99.90;;;;;;4904258;29;20459;-67
2022/08/05 10:33:47;;;;;;;0.00;0.00;;;19.60;99.90;;;;;;4904472;29;20664;-67
2022/08/05 10:36:21;;;;;;;0.00;0.00;;;19.50;99.90;;;;;;4904280;29;20470;-67
2022/08/05 10:39:00;;;;;;;0.00;0.00;;;19.50;99.90;;;;;;4904441;29;20910;-67
2022/08/05 10:41:43;;;;;;;0.00;0.00;;;19.30;99.90;;;;;;4904137;29;20458;-67
2022/08/05 10:44:17;;;;;;;0.00;0.00;;;19.20;99.90;;;;;;4904200;29;20736;-67
2022/08/05 10:46:49;;;;;;;0.00;0.00;;;19.10;99.90;;;;;;4904271;29;20486;-67
2022/08/05 10:49:20;;;;;;;0.00;0.00;;;19.00;99.90;;;;;;4903906;29;20489;-67
2022/08/05 10:52:01;;;;;;;0.00;0.00;;;18.90;99.90;;;;;;4903163;29;20511;-67
2022/08/05 10:54:47;;;;;;;0.00;0.00;;;18.80;99.90;;;;;;4904096;29;20653;-67
2022/08/05 10:57:27;;;;;;;0.00;0.00;;;18.70;99.90;;;;;;4903628;29;20496;-67
2022/08/05 11:00:11;;;;;;;0.00;0.00;;;18.60;99.90;;;;;;4903247;29;20675;-68
2022/08/05 11:03:10;;;;;;;0.00;0.00;;;18.50;99.90;;;;;;4903920;29;20929;-68
2022/08/05 11:06:11;;;;;;;0.00;0.00;;;18.50;99.90;;;;;;4903760;29;20955;-66
2022/08/05 11:09:10;;;;;;;0.00;0.00;;;18.50;99.90;;;;;;4903439;29;20687;-66
2022/08/05 11:11:45;;;;;;;0.00;0.00;;;18.60;99.90;;;;;;4903113;29;20525;-66
2022/08/05 11:14:28;;;;;;;0.00;0.00;;;18.50;99.90;;;;;;4903362;29;20537;-66
2022/08/05 11:17:31;;;;;;;0.00;0.00;;;18.60;99.90;;;;;;4903611;29;20731;-66
2022/08/05 11:20:37;;;;;;;0.00;0.00;;;18.60;99.90;;;;;;4903189;29;20436;-68
2022/08/05 11:23:33;;;;;;;0.00;0.00;;;18.50;99.90;;;;;;4903447;29;20453;-68
2022/08/05 11:26:22;;;;;;;0.00;0.00;;;18.40;99.90;;;;;;4903333;29;20565;-68
2022/08/05 11:29:01;;;;;;;0.00;0.00;;;18.30;99.90;;;;;;4902940;29;20517;-68
2022/08/05 11:31:42;;;;;;;0.00;0.00;;;18.20;99.90;;;;;;4903043;29;20436;-68
2022/08/05 11:34:40;;;;;;;0.00;0.00;;;18.10;99.90;;;;;;4902923;29;20848;-68
2022/08/05 11:37:59;;;;;;;0.00;0.00;;;17.90;99.90;;;;;;4902460;29;20471;-67
2022/08/05 11:41:00;;;;;;;0.00;0.00;;;17.80;99.90;;;;;;4902880;29;20843;-66
2022/08/05 11:43:54;;;;;;;0.00;0.00;;;17.70;99.90;;;;;;4902782;29;20452;-68
2022/08/05 11:46:37;;;;;;;0.00;0.00;;;17.60;99.90;;;;;;4902556;29;21020;-66
2022/08/05 11:49:25;;;;;;;0.00;0.00;;;17.60;99.90;;;;;;4903006;29;20465;-66
2022/08/05 11:51:53;;;;;;;0.00;0.00;;;17.60;99.90;;;;;;4902587;29;20449;-65
2022/08/05 11:54:25;;;;;;;0.00;0.00;;;17.60;99.90;;;;;;4902585;29;20447;-66
2022/08/05 11:57:04;;;;;;;0.00;0.00;;;17.60;99.90;;;;;;4903021;29;20472;-68
2022/08/05 11:59:51;;;;;;;0.00;0.00;;;17.60;99.90;;;;;;4901965;29;20559;-68
2022/08/05 12:02:25;;;;;;;0.00;0.00;;;17.80;99.90;;;;;;4902493;29;20459;-66
2022/08/05 12:05:00;;;;;;;0.00;0.00;;;17.80;99.90;;;;;;4902490;29;20534;-66
2022/08/05 12:07:36;;;;;;;0.00;0.00;;;17.90;99.90;;;;;;4902091;29;20487;-66
2022/08/05 12:10:26;;;;;;;0.00;0.00;;;17.90;99.90;;;;;;4902652;29;20445;-66
2022/08/05 12:13:15;;;;;;;0.00;0.00;;;17.90;99.90;;;;;;4902435;29;20450;-66
2022/08/05 12:16:03;;;;;;;0.00;0.00;;;18.10;99.90;;;;;;4902427;29;21068;-66
2022/08/05 12:18:41;;;;;;;0.00;0.00;;;18.30;99.90;;;;;;4902076;29;20468;-66
2022/08/05 12:21:22;;;;;;;0.00;0.00;;;18.40;99.90;;;;;;4901482;29;20545;-66
2022/08/05 12:23:57;;;;;;;0.00;0.00;;;18.60;99.90;;;;;;4901875;29;20461;-66
2022/08/05 12:26:31;;;;;;;0.00;0.00;;;18.60;99.90;;;;;;4901941;29;21053;-66
2022/08/05 12:29:01;;;;;;;0.00;0.00;;;18.70;99.90;;;;;;4901838;29;20470;-67
2022/08/05 12:31:31;;;;;;;0.00;0.00;;;18.80;99.90;;;;;;4901997;29;20450;-67
2022/08/05 12:34:19;;;;;;;0.00;0.00;;;18.80;99.90;;;;;;4902134;29;20450;-66
2022/08/05 12:36:52;;;;;;;0.00;0.00;;;19.10;99.90;;;;;;4901989;29;20565;-66
2022/08/05 12:39:20;;;;;;;0.00;0.00;;;19.20;99.90;;;;;;4901961;29;20982;-66
2022/08/05 12:41:50;;;;;;;0.00;0.00;;;19.30;99.90;;;;;;4901877;29;20450;-67
2022/08/05 12:44:26;;;;;;;0.00;0.00;;;19.30;99.90;;;;;;4901994;29;20449;-66
2022/08/05 12:47:02;;;;;;;0.00;0.00;;;19.40;99.90;;;;;;4901899;29;20517;-68
2022/08/05 12:49:41;;;;;;;0.00;0.00;;;19.70;99.90;;;;;;4901859;29;20505;-66
2022/08/05 12:52:29;;;;;;;0.00;0.00;;;19.90;99.90;;;;;;4901832;29;20438;-66
2022/08/05 12:55:19;;;;;;;0.00;0.00;;;20.10;99.90;;;;;;4901847;29;20561;-65
2022/08/05 12:57:49;;;;;;;0.00;0.00;;;20.20;99.90;;;;;;4901762;29;20801;-66
2022/08/05 13:00:42;;;;;;;0.00;0.00;;;20.40;99.90;;;;;;4900932;29;20467;-66
2022/08/05 13:03:30;;;;;;;0.00;0.00;;;20.50;99.90;;;;;;4901582;29;20506;-67
2022/08/05 13:05:59;;;;;;;0.00;0.00;;;20.60;99.90;;;;;;4901670;29;20457;-66
2022/08/05 13:08:29;;;;;;;0.00;0.00;;;20.50;99.90;;;;;;4901605;29;20978;-66
2022/08/05 13:11:00;;;;;;;0.00;0.00;;;20.80;99.90;;;;;;4901497;29;20807;-66
2022/08/05 13:13:28;;;;;;;0.00;0.00;;;21.00;99.90;;;;;;4901388;29;20442;-66
2022/08/05 13:16:19;;;;;;;0.00;0.00;;;21.30;99.90;;;;;;4903882;29;21061;-66
2022/08/05 13:18:51;;;;;;;0.00;0.00;;;21.60;99.90;;;;;;4905350;29;20475;-66
2022/08/05 13:21:22;;;;;;;0.00;0.00;;;21.90;99.90;;;;;;4904858;29;20704;-66
2022/08/05 13:23:55;;;;;;;0.00;0.00;;;22.10;99.90;;;;;;4905106;29;20457;-66
2022/08/05 13:26:25;;;;;;;0.00;0.00;;;22.10;99.90;;;;;;4905291;29;20707;-67
2022/08/05 13:28:57;;;;;;;0.00;0.00;;;22.30;99.90;;;;;;4905142;29;20459;-66
2022/08/05 13:31:28;;;;;;;0.00;0.00;;;22.30;99.90;;;;;;4904945;29;20448;-66
2022/08/05 13:34:16;;;;;;;0.00;0.00;;;22.40;99.90;;;;;;4905358;29;20444;-66
2022/08/05 13:36:53;;;;;;;0.00;0.00;;;22.50;99.90;;;;;;4905326;29;20713;-66
2022/08/05 13:39:21;;;;;;;0.00;0.00;;;22.70;99.90;;;;;;4905131;29;20475;-66
2022/08/05 13:42:09;;;;;;;0.00;0.00;;;22.80;99.90;;;;;;4905266;29;20746;-66
2022/08/05 13:44:42;;;;;;;0.00;0.00;;;22.80;99.90;;;;;;4904757;29;20523;-66
2022/08/05 13:47:14;;;;;;;0.00;0.00;;;22.70;99.90;;;;;;4904853;29;20562;-66
2022/08/05 13:50:02;;;;;;;0.00;0.00;;;22.70;99.90;;;;;;4904764;29;20448;-65
2022/08/05 13:52:36;;;;;;;0.00;0.00;;;22.70;99.90;;;;;;4904891;29;20716;-65